Airfield :
LOGIN :

Register | Disclaimer

   EN    FR    IT 

 










Legend :    VFR   Marginal VFR   IFR   Intensive IFR   Very Intensive IFR
Visi :
Ceiling :
>= 8 km
>= 3000ft
5 to 8 km
1000 to 3000 ft
1500m to 5 km
500 to 1000 ft
800 to 1500m
200 to 500 ft
< 800m
< 200 ft
Symbols :   Thunderstorms  Fog  Heavy snow  Heavy precipitations  Wind > 20 kt
SIGMETs :     Misc.  Thunderstorms  Icing  Turbulence  Mountain Waves  Volcanic Ashes






- Airport Elevation : 1363 ft


ETIC - Grafenwohr Army Air Field

CURRENT METAR :
  • 220426Z AUTO 00000KT 1400 R14/1300VP1500 BR VV002 M04/M04 A3052 RMK AO2 SLP368 $

EXPIRED METARs :
  • 220411Z AUTO 00000KT 1600 R14/1500VP1500 BR VV002 M04/M04 A3052 RMK AO2 SLP368 $
  • 220356Z AUTO 00000KT 1600 R14/1300VP1500 BR VV001 M04/M04 A3052 RMK AO2 FZDZE0256FZDZB02E15FZDZB19E33 SLP368 P0000 T10401040 $
  • 220333Z AUTO 00000KT 1000 R14/1000V1300 BR VV001 M04/M04 A3052 RMK AO2 FZDZE0256FZDZB02E15FZDZB19E33 SLP366 $
  • 220319Z AUTO 00000KT 0800 R14/0800V0900 -FZDZ FZFG VV001 M04/M04 A3052 RMK AO2 FZDZE0256FZDZB02E15FZDZB19 SLP366 $
  • 220315Z AUTO 00000KT 0800 R14/0800V1100 FZFG VV001 M04/M04 A3053 RMK AO2 FZDZE0256FZDZB02E15 SLP369 $
  • 220302Z AUTO 00000KT 1000 R14/1000VP1500 -FZDZ BR VV001 M04/M04 A3053 RMK AO2 FZDZE0256FZDZB02 SLP367 $
  • 220256Z AUTO 00000KT 0800 R14/0800V1100 -FZDZ FZFG VV001 M04/M04 A3053 RMK AO2 FZDZE0159FZDZB05E18FZDZB24E37FZDZB43 SLP367 P0000 60000 T10411041 57011 $
  • 220243Z AUTO 00000KT 0600 R14/0700V1000 -FZDZ FZFG VV001 M04/M04 A3053 RMK AO2 FZDZE0159FZDZB05E18FZDZB24E37FZDZB43 SLP367 $
  • 220224Z AUTO 00000KT 0800 R14/0800V1000 -FZDZ FZFG VV001 M04/M04 A3054 RMK AO2 FZDZE0159FZDZB05E18FZDZB24 SLP370 $
  • 220205Z AUTO 26003KT 1000 R14/1000V1400 -FZDZ BR VV001 M04/M04 A3054 RMK AO2 FZDZE0159FZDZB05 SLP370 $
  • 220159Z AUTO 00000KT 1000 R14/1000V1400 BR VV001 M04/M04 A3054 RMK AO2 FZDZE59 SLP368 $
  • 220146Z AUTO 00000KT 0800 R14/0800V1000 -FZDZ FZFG VV001 M04/M04 A3054 RMK AO2 FZDZE04FZDZB07E21FZDZB27E40FZDZB46 SLP370 $
  • 220140Z AUTO 00000KT 1000 R14/0800V1500 BR VV001 M04/M04 A3055 RMK AO2 FZDZE04FZDZB07E21FZDZB27E40 SLP374 $

TAF TAF ETIC
Valid from the 22 at 02:00 until the 23 at 08:00 UTC


220200Z 2202/2308 VRB04KT 0400 FG VV002 QNH3060INS
BECMG 2205/2206 VRB06KT 1600 BR BKN005 QNH3055INS
TEMPO 2206/2209 3200 BR
BECMG 2208/2209 VRB06KT 9999 NSW SKC QNH3053INS
BECMG 2211/2212 VRB06KT 9999 BKN020 QNH3051INS
BECMG 2220/2221 VRB06KT 5000 BR BKN010 OVC030 QNH3055INS TX01/2212Z TNM05/2206Z



MET'MAP, your aeronautical weather chart ! - Copyright ORBIFLY December 2007 - Disclaimer

ORBIFLY MET'MAP TEAM :

Programming & Development : Alexandra Zaïnal
Concept & original design : Baudouin d'Aumeries
Assistance for programming : Marc-Olivier Méhu
Technical & hardware support : Manuel Goepfert

Contact : metmap@orbifly.com




SOURCES & CREDITS :

   NOAA